createdAt,value
2022-12-16T00:00:01.267Z,990.48
2022-12-16T00:01:01.361Z,990.42
2022-12-16T00:02:01.377Z,990.45
2022-12-16T00:03:01.322Z,990.53
2022-12-16T00:04:01.258Z,990.46
2022-12-16T00:05:01.223Z,990.45
2022-12-16T00:06:01.196Z,990.41
2022-12-16T00:07:01.204Z,990.37
2022-12-16T00:08:01.225Z,990.39
2022-12-16T00:09:01.180Z,990.45
2022-12-16T00:10:01.166Z,990.46
2022-12-16T00:11:01.167Z,990.41
2022-12-16T00:12:01.148Z,990.39
2022-12-16T00:13:03.674Z,990.47
2022-12-16T00:14:02.149Z,990.36
2022-12-16T00:15:01.106Z,990.36
2022-12-16T00:16:01.177Z,990.38
2022-12-16T00:17:01.085Z,990.41
2022-12-16T00:18:01.082Z,990.28
2022-12-16T00:19:01.079Z,990.42
2022-12-16T00:20:01.371Z,990.43
2022-12-16T00:21:01.044Z,990.33
2022-12-16T00:22:01.044Z,990.41
2022-12-16T00:23:01.021Z,990.43
2022-12-16T00:24:01.044Z,990.37
2022-12-16T00:25:01.072Z,990.42
2022-12-16T00:26:01.012Z,990.42
2022-12-16T00:27:00.996Z,990.44
2022-12-16T00:28:01.306Z,990.39
2022-12-16T00:29:00.964Z,990.43
2022-12-16T00:30:00.956Z,990.44
2022-12-16T00:31:00.956Z,990.47
2022-12-16T00:32:01.008Z,990.41
2022-12-16T00:33:00.933Z,990.30
2022-12-16T00:34:00.913Z,990.42
2022-12-16T00:35:00.981Z,990.40
2022-12-16T00:36:00.920Z,990.40
2022-12-16T00:37:00.872Z,990.37
2022-12-16T00:38:00.861Z,990.32
2022-12-16T00:39:00.851Z,990.32
2022-12-16T00:40:00.873Z,990.38
2022-12-16T00:41:00.849Z,990.30
2022-12-16T00:42:00.868Z,990.35
2022-12-16T00:43:00.822Z,990.34
2022-12-16T00:44:00.844Z,990.34
2022-12-16T00:45:00.781Z,990.28
2022-12-16T00:46:00.816Z,990.27
2022-12-16T00:47:00.773Z,990.29
2022-12-16T00:48:00.789Z,990.28
2022-12-16T00:49:00.740Z,990.27
2022-12-16T00:50:00.745Z,990.30
2022-12-16T00:51:00.723Z,990.30
2022-12-16T00:52:00.777Z,990.29
2022-12-16T00:53:00.698Z,990.25
2022-12-16T00:54:00.719Z,990.34
2022-12-16T00:55:00.677Z,990.22
2022-12-16T00:56:00.668Z,990.19
2022-12-16T00:57:00.657Z,990.29
2022-12-16T00:58:00.674Z,990.24
2022-12-16T00:59:00.663Z,990.22
2022-12-16T01:00:00.627Z,990.25
2022-12-16T01:01:00.682Z,990.21
2022-12-16T01:02:00.928Z,990.20
2022-12-16T01:03:00.733Z,990.19
2022-12-16T01:04:00.588Z,990.22
2022-12-16T01:05:00.596Z,990.23
2022-12-16T01:06:00.565Z,990.21
2022-12-16T01:07:00.550Z,990.19
2022-12-16T01:08:00.561Z,990.22
2022-12-16T01:09:00.527Z,990.27
2022-12-16T01:10:00.525Z,990.29
2022-12-16T01:11:00.555Z,990.28
2022-12-16T01:12:00.501Z,990.21
2022-12-16T01:13:00.505Z,990.18
2022-12-16T01:14:00.485Z,990.18
2022-12-16T01:15:00.471Z,990.22
2022-12-16T01:16:00.548Z,990.23
2022-12-16T01:17:00.528Z,990.22
2022-12-16T01:18:00.436Z,990.19
2022-12-16T01:19:00.425Z,990.24
2022-12-16T01:20:00.426Z,990.31
2022-12-16T01:21:00.395Z,990.34
2022-12-16T01:22:00.414Z,990.35
2022-12-16T01:23:00.395Z,990.43
2022-12-16T01:24:00.384Z,990.39
2022-12-16T01:25:00.366Z,990.43
2022-12-16T01:26:00.391Z,990.43
2022-12-16T01:27:00.366Z,990.43
2022-12-16T01:28:00.376Z,990.41
2022-12-16T01:29:00.324Z,990.43
2022-12-16T01:30:00.314Z,990.42
2022-12-16T01:31:00.302Z,990.45
2022-12-16T01:32:00.338Z,990.41
2022-12-16T01:33:00.293Z,990.46
2022-12-16T01:34:00.286Z,990.46
2022-12-16T01:35:00.255Z,990.49
2022-12-16T01:36:00.241Z,990.53
2022-12-16T01:37:00.227Z,990.54
2022-12-16T01:38:00.224Z,990.52
2022-12-16T01:39:00.224Z,990.54
2022-12-16T01:40:00.203Z,990.55
2022-12-16T01:41:00.180Z,990.57
2022-12-16T01:42:00.181Z,990.59
2022-12-16T01:43:00.170Z,990.57
2022-12-16T01:44:00.159Z,990.58
2022-12-16T01:45:00.162Z,990.61
2022-12-16T01:46:00.230Z,990.59
2022-12-16T01:47:00.122Z,990.72
2022-12-16T01:48:00.108Z,990.66
2022-12-16T01:49:00.098Z,990.70
2022-12-16T01:50:00.109Z,990.71
2022-12-16T01:51:00.112Z,990.67
2022-12-16T01:52:00.081Z,990.72
2022-12-16T01:53:00.076Z,990.79
2022-12-16T01:54:00.064Z,990.76
2022-12-16T01:55:00.027Z,990.73
2022-12-16T01:56:00.088Z,990.75
2022-12-16T01:57:00.018Z,990.68
2022-12-16T01:58:00.010Z,990.74
2022-12-16T01:58:59.998Z,990.68
2022-12-16T02:00:00.008Z,990.67
2022-12-16T02:01:00.004Z,990.71
2022-12-16T02:02:00.344Z,990.72
2022-12-16T02:03:00.097Z,990.68
2022-12-16T02:03:59.974Z,990.73
2022-12-16T02:04:59.927Z,990.71
2022-12-16T02:05:59.935Z,990.72
2022-12-16T02:06:59.909Z,990.71
2022-12-16T02:07:59.931Z,990.70
2022-12-16T02:08:59.879Z,990.70
2022-12-16T02:09:59.887Z,990.72
2022-12-16T02:10:59.909Z,990.73
2022-12-16T02:11:59.855Z,990.69
2022-12-16T02:12:59.886Z,990.75
2022-12-16T02:13:59.839Z,990.76
2022-12-16T02:15:06.867Z,990.77
2022-12-16T02:15:59.806Z,990.79
2022-12-16T02:16:59.838Z,990.75
2022-12-16T02:17:59.787Z,990.80
2022-12-16T02:18:59.796Z,990.74
2022-12-16T02:19:59.765Z,990.74
2022-12-16T02:20:59.746Z,990.71
2022-12-16T02:21:59.745Z,990.67
2022-12-16T02:22:59.726Z,990.80
2022-12-16T02:23:59.723Z,990.70
2022-12-16T02:24:59.725Z,990.73
2022-12-16T02:25:59.696Z,990.70
2022-12-16T02:26:59.695Z,990.71
2022-12-16T02:27:59.706Z,990.72
2022-12-16T02:28:59.661Z,990.78
2022-12-16T02:29:59.653Z,990.68
2022-12-16T02:30:59.721Z,990.67
2022-12-16T02:31:59.634Z,990.80
2022-12-16T02:32:59.630Z,990.72
2022-12-16T02:33:59.614Z,990.71
2022-12-16T02:34:59.597Z,990.68
2022-12-16T02:35:59.614Z,990.67
2022-12-16T02:36:59.582Z,990.64
2022-12-16T02:37:59.570Z,990.64
2022-12-16T02:38:59.621Z,990.67
2022-12-16T02:39:59.541Z,990.67
2022-12-16T02:40:59.533Z,990.68
2022-12-16T02:41:59.542Z,990.66
2022-12-16T02:42:59.514Z,990.64
2022-12-16T02:43:59.511Z,990.64
2022-12-16T02:44:59.490Z,990.62
2022-12-16T02:45:59.534Z,990.68
2022-12-16T02:46:59.469Z,990.66
2022-12-16T02:47:59.521Z,990.65
2022-12-16T02:48:59.440Z,990.67
2022-12-16T02:49:59.440Z,990.70
2022-12-16T02:50:59.422Z,990.68
2022-12-16T02:51:59.418Z,990.56
2022-12-16T02:52:59.400Z,990.60
2022-12-16T02:53:59.430Z,990.64
2022-12-16T02:54:59.383Z,990.62
2022-12-16T02:55:59.384Z,990.62
2022-12-16T02:56:59.360Z,990.64
2022-12-16T02:57:59.348Z,990.56
2022-12-16T02:58:59.367Z,990.63
2022-12-16T02:59:59.328Z,990.65
2022-12-16T03:00:59.402Z,990.58
2022-12-16T03:01:59.494Z,990.64
2022-12-16T03:02:59.391Z,990.58
2022-12-16T03:03:59.291Z,990.59
2022-12-16T03:04:59.297Z,990.65
2022-12-16T03:05:59.267Z,990.66
2022-12-16T03:06:59.256Z,990.60
2022-12-16T03:07:59.257Z,990.68
2022-12-16T03:08:59.226Z,990.69
2022-12-16T03:09:59.219Z,990.66
2022-12-16T03:10:59.225Z,990.70
2022-12-16T03:11:59.204Z,990.67
2022-12-16T03:12:59.185Z,990.69
2022-12-16T03:13:59.185Z,990.69
2022-12-16T03:14:59.165Z,990.68
2022-12-16T03:15:59.185Z,990.70
2022-12-16T03:16:59.184Z,990.69
2022-12-16T03:17:59.137Z,990.72
2022-12-16T03:18:59.135Z,990.73
2022-12-16T03:19:59.116Z,990.72
2022-12-16T03:20:59.095Z,990.76
2022-12-16T03:21:59.124Z,990.76
2022-12-16T03:22:59.074Z,990.67
2022-12-16T03:23:59.073Z,990.69
2022-12-16T03:24:59.066Z,990.70
2022-12-16T03:25:59.051Z,990.59
2022-12-16T03:26:59.042Z,990.61
2022-12-16T03:27:59.043Z,990.64
2022-12-16T03:28:59.012Z,990.62
2022-12-16T03:29:59.014Z,990.62
2022-12-16T03:30:59.018Z,990.65
2022-12-16T03:31:58.985Z,990.64
2022-12-16T03:32:58.973Z,990.68
2022-12-16T03:33:58.992Z,990.65
2022-12-16T03:34:58.952Z,990.65
2022-12-16T03:35:58.941Z,990.62
2022-12-16T03:36:58.931Z,990.68
2022-12-16T03:37:58.920Z,990.67
2022-12-16T03:38:58.911Z,990.69
2022-12-16T03:39:58.911Z,990.65
2022-12-16T03:40:58.882Z,990.70
2022-12-16T03:41:58.883Z,990.68
2022-12-16T03:42:58.861Z,990.70
2022-12-16T03:43:58.861Z,990.68
2022-12-16T03:44:58.876Z,990.67
2022-12-16T03:45:58.878Z,990.63
2022-12-16T03:46:58.821Z,990.67
2022-12-16T03:47:58.826Z,990.75
2022-12-16T03:48:58.799Z,990.80
2022-12-16T03:49:58.789Z,990.79
2022-12-16T03:50:58.831Z,990.73
2022-12-16T03:51:58.769Z,990.81
2022-12-16T03:52:58.763Z,990.82
2022-12-16T03:53:58.756Z,990.79
2022-12-16T03:54:58.736Z,990.84
2022-12-16T03:55:58.728Z,990.81
2022-12-16T03:56:58.746Z,990.90
2022-12-16T03:57:58.708Z,990.84
2022-12-16T03:58:58.697Z,990.83
2022-12-16T03:59:58.686Z,990.88
2022-12-16T04:00:58.667Z,990.86
2022-12-16T04:01:58.792Z,990.85
2022-12-16T04:02:58.855Z,990.87
2022-12-16T04:03:58.753Z,990.88
2022-12-16T04:04:58.627Z,990.90
2022-12-16T04:05:58.617Z,990.95
2022-12-16T04:06:58.606Z,990.93
2022-12-16T04:08:01.767Z,990.88
2022-12-16T04:08:58.585Z,990.86
2022-12-16T04:09:58.576Z,990.90
2022-12-16T04:10:58.565Z,990.91
2022-12-16T04:11:58.556Z,990.91
2022-12-16T04:12:58.544Z,990.93
2022-12-16T04:13:58.569Z,990.94
2022-12-16T04:14:58.523Z,990.96
2022-12-16T04:15:58.564Z,991.01
2022-12-16T04:16:58.512Z,991.01
2022-12-16T04:17:58.494Z,991.02
2022-12-16T04:18:58.475Z,990.99
2022-12-16T04:19:58.483Z,990.98
2022-12-16T04:20:58.459Z,991.03
2022-12-16T04:21:58.452Z,991.03
2022-12-16T04:22:58.437Z,991.00
2022-12-16T04:23:58.432Z,991.09
2022-12-16T04:24:58.433Z,991.05
2022-12-16T04:25:58.403Z,991.07
2022-12-16T04:26:58.393Z,991.10
2022-12-16T04:27:58.382Z,991.07
2022-12-16T04:28:58.382Z,990.98
2022-12-16T04:29:58.360Z,990.97
2022-12-16T04:30:58.440Z,990.98
2022-12-16T04:31:58.331Z,991.00
2022-12-16T04:32:58.331Z,990.97
2022-12-16T04:33:58.321Z,990.96
2022-12-16T04:34:58.311Z,990.90
2022-12-16T04:35:58.301Z,990.92
2022-12-16T04:36:58.309Z,990.92
2022-12-16T04:37:58.281Z,990.93
2022-12-16T04:38:58.269Z,991.00
2022-12-16T04:39:58.250Z,990.96
2022-12-16T04:40:58.249Z,990.96
2022-12-16T04:41:58.233Z,991.01
2022-12-16T04:42:58.239Z,991.02
2022-12-16T04:43:58.221Z,990.96
2022-12-16T04:44:58.209Z,990.98
2022-12-16T04:45:58.239Z,990.99
2022-12-16T04:46:58.179Z,990.99
2022-12-16T04:47:58.189Z,990.98
2022-12-16T04:48:58.159Z,991.02
2022-12-16T04:49:58.148Z,991.08
2022-12-16T04:50:58.138Z,991.10
2022-12-16T04:51:58.129Z,991.15
2022-12-16T04:52:58.140Z,991.12
2022-12-16T04:53:58.206Z,991.19
2022-12-16T04:54:58.097Z,991.20
2022-12-16T04:56:03.576Z,991.18
2022-12-16T04:56:59.077Z,991.25
2022-12-16T04:57:58.059Z,991.22
2022-12-16T04:58:58.055Z,991.18
2022-12-16T04:59:58.065Z,991.26
2022-12-16T05:00:58.039Z,991.27
2022-12-16T05:01:58.089Z,991.22
2022-12-16T05:02:58.008Z,991.33
2022-12-16T05:03:58.034Z,991.30
2022-12-16T05:04:57.986Z,991.36
2022-12-16T05:05:57.997Z,991.32
2022-12-16T05:06:57.966Z,991.39
2022-12-16T05:07:57.956Z,991.42
2022-12-16T05:08:57.945Z,991.38
2022-12-16T05:09:57.935Z,991.42
2022-12-16T05:10:57.925Z,991.43
2022-12-16T05:11:57.933Z,991.38
2022-12-16T05:12:57.904Z,991.45
2022-12-16T05:13:57.895Z,991.49
2022-12-16T05:14:57.882Z,991.50
2022-12-16T05:15:57.921Z,991.50
2022-12-16T05:16:57.854Z,991.48
2022-12-16T05:17:57.862Z,991.51
2022-12-16T05:18:57.842Z,991.51
2022-12-16T05:19:57.823Z,991.53
2022-12-16T05:20:57.814Z,991.58
2022-12-16T05:21:57.802Z,991.56
2022-12-16T05:22:57.812Z,991.60
2022-12-16T05:23:57.794Z,991.62
2022-12-16T05:24:57.773Z,991.60
2022-12-16T05:25:57.764Z,991.67
2022-12-16T05:26:57.753Z,991.63
2022-12-16T05:27:57.741Z,991.66
2022-12-16T05:28:57.742Z,991.68
2022-12-16T05:29:57.721Z,991.74
2022-12-16T05:30:57.753Z,991.71
2022-12-16T05:31:57.696Z,991.77
2022-12-16T05:32:57.706Z,991.72
2022-12-16T05:33:57.700Z,991.82
2022-12-16T05:34:57.663Z,991.75
2022-12-16T05:35:57.651Z,991.79
2022-12-16T05:36:57.641Z,991.85
2022-12-16T05:37:57.630Z,991.86
2022-12-16T05:38:57.621Z,991.85
2022-12-16T05:39:57.629Z,991.82
2022-12-16T05:40:57.619Z,991.87
2022-12-16T05:41:57.591Z,991.91
2022-12-16T05:42:57.580Z,991.97
2022-12-16T05:43:57.571Z,991.95
2022-12-16T05:44:57.558Z,991.91
2022-12-16T05:45:57.629Z,991.90
2022-12-16T05:46:57.638Z,991.97
2022-12-16T05:47:57.519Z,991.97
2022-12-16T05:48:57.516Z,991.95
2022-12-16T05:49:57.499Z,991.97
2022-12-16T05:50:57.489Z,991.94
2022-12-16T05:51:57.497Z,991.98
2022-12-16T05:52:57.467Z,992.06
2022-12-16T05:53:57.467Z,992.12
2022-12-16T05:54:57.447Z,992.05
2022-12-16T05:55:57.437Z,992.16
2022-12-16T05:56:57.478Z,992.15
2022-12-16T05:57:57.418Z,992.19
2022-12-16T05:58:57.408Z,992.15
2022-12-16T05:59:57.387Z,992.23
2022-12-16T06:00:57.385Z,992.21
2022-12-16T06:01:57.465Z,992.23
2022-12-16T06:02:57.482Z,992.26
2022-12-16T06:03:57.383Z,992.21
2022-12-16T06:04:57.344Z,992.24
2022-12-16T06:05:57.325Z,992.24
2022-12-16T06:06:57.325Z,992.34
2022-12-16T06:07:57.306Z,992.24
2022-12-16T06:08:57.327Z,992.30
2022-12-16T06:09:57.289Z,992.27
2022-12-16T06:10:57.275Z,992.30
2022-12-16T06:11:57.264Z,992.27
2022-12-16T06:12:57.255Z,992.30
2022-12-16T06:13:57.245Z,992.35
2022-12-16T06:14:57.255Z,992.30
2022-12-16T06:15:57.303Z,992.31
2022-12-16T06:16:57.268Z,992.34
2022-12-16T06:17:57.205Z,992.36
2022-12-16T06:18:57.196Z,992.38
2022-12-16T06:19:57.174Z,992.37
2022-12-16T06:20:57.312Z,992.42
2022-12-16T06:21:57.162Z,992.39
2022-12-16T06:22:57.143Z,992.42
2022-12-16T06:23:57.134Z,992.37
2022-12-16T06:24:57.124Z,992.41
2022-12-16T06:25:57.112Z,992.46
2022-12-16T06:26:57.133Z,992.44
2022-12-16T06:27:57.101Z,992.48
2022-12-16T06:28:57.082Z,992.47
2022-12-16T06:29:57.073Z,992.54
2022-12-16T06:30:57.063Z,992.51
2022-12-16T06:31:57.143Z,992.57
2022-12-16T06:32:57.061Z,992.58
2022-12-16T06:33:57.028Z,992.58
2022-12-16T06:34:57.021Z,992.55
2022-12-16T06:35:57.009Z,992.57
2022-12-16T06:36:57.003Z,992.60
2022-12-16T06:37:56.984Z,992.64
2022-12-16T06:38:57.018Z,992.64
2022-12-16T06:39:56.961Z,992.65
2022-12-16T06:40:56.950Z,992.71
2022-12-16T06:41:56.940Z,992.71
2022-12-16T06:42:56.931Z,992.73
2022-12-16T06:43:56.928Z,992.70
2022-12-16T06:44:56.939Z,992.78
2022-12-16T06:45:56.926Z,992.76
2022-12-16T06:46:56.888Z,992.77
2022-12-16T06:47:56.868Z,992.81
2022-12-16T06:48:56.868Z,992.80
2022-12-16T06:49:56.867Z,992.78
2022-12-16T06:50:56.878Z,992.86
2022-12-16T06:51:56.831Z,992.84
2022-12-16T06:52:56.826Z,992.84
2022-12-16T06:53:56.827Z,992.82
2022-12-16T06:54:56.806Z,992.99
2022-12-16T06:55:56.808Z,992.92
2022-12-16T06:56:56.782Z,992.95
2022-12-16T06:57:56.769Z,992.94
2022-12-16T06:58:56.757Z,992.95
2022-12-16T06:59:56.745Z,992.96
2022-12-16T07:00:56.806Z,992.99
2022-12-16T07:01:57.109Z,993.01
2022-12-16T07:02:56.786Z,993.03
2022-12-16T07:03:56.701Z,993.04
2022-12-16T07:04:56.696Z,993.04
2022-12-16T07:05:56.690Z,993.11
2022-12-16T07:06:56.694Z,993.15
2022-12-16T07:07:56.664Z,993.12
2022-12-16T07:08:56.655Z,993.09
2022-12-16T07:09:56.636Z,993.19
2022-12-16T07:11:03.451Z,993.20
2022-12-16T07:11:57.643Z,993.21
2022-12-16T07:12:56.605Z,993.21
2022-12-16T07:13:56.593Z,993.22
2022-12-16T07:14:56.594Z,993.21
2022-12-16T07:15:56.575Z,993.26
2022-12-16T07:16:56.635Z,993.23
2022-12-16T07:17:56.574Z,993.24
2022-12-16T07:18:56.545Z,993.30
2022-12-16T07:19:56.534Z,993.32
2022-12-16T07:20:56.534Z,993.33
2022-12-16T07:21:56.513Z,993.31
2022-12-16T07:23:06.111Z,993.39
2022-12-16T07:23:57.514Z,993.37
2022-12-16T07:24:56.487Z,993.40
2022-12-16T07:25:57.538Z,993.42
2022-12-16T07:26:56.461Z,993.47
2022-12-16T07:27:56.456Z,993.44
2022-12-16T07:28:56.442Z,993.47
2022-12-16T07:29:56.442Z,993.48
2022-12-16T07:30:56.411Z,993.55
2022-12-16T07:31:56.540Z,993.47
2022-12-16T07:32:56.390Z,993.44
2022-12-16T07:33:56.381Z,993.54
2022-12-16T07:34:56.370Z,993.59
2022-12-16T07:35:56.381Z,993.54
2022-12-16T07:36:56.351Z,993.61
2022-12-16T07:37:56.338Z,993.59
2022-12-16T07:38:56.332Z,993.72
2022-12-16T07:39:56.309Z,993.67
2022-12-16T07:40:56.879Z,993.65
2022-12-16T07:41:56.309Z,993.72
2022-12-16T07:42:56.289Z,993.72
2022-12-16T07:43:56.269Z,993.76
2022-12-16T07:44:56.258Z,993.85
2022-12-16T07:45:56.309Z,993.78
2022-12-16T07:46:56.258Z,993.77
2022-12-16T07:47:56.228Z,993.82
2022-12-16T07:48:56.219Z,993.85
2022-12-16T07:49:56.207Z,993.89
2022-12-16T07:50:56.197Z,993.89
2022-12-16T07:51:56.191Z,993.90
2022-12-16T07:52:56.197Z,993.90
2022-12-16T07:53:56.157Z,993.96
2022-12-16T07:54:56.158Z,993.93
2022-12-16T07:55:56.141Z,993.95
2022-12-16T07:56:56.145Z,994.00
2022-12-16T07:57:56.127Z,994.05
2022-12-16T07:58:56.129Z,994.04
2022-12-16T07:59:56.099Z,994.05
2022-12-16T08:00:56.132Z,994.04
2022-12-16T08:01:56.167Z,994.11
2022-12-16T08:02:56.192Z,994.11
2022-12-16T08:03:56.247Z,994.10
2022-12-16T08:04:56.049Z,994.07
2022-12-16T08:05:56.036Z,994.05
2022-12-16T08:06:56.026Z,994.08
2022-12-16T08:07:56.014Z,994.14
2022-12-16T08:08:56.005Z,994.11
2022-12-16T08:09:56.014Z,994.15
2022-12-16T08:10:55.985Z,994.12
2022-12-16T08:11:55.965Z,994.16
2022-12-16T08:12:55.965Z,994.14
2022-12-16T08:13:55.953Z,994.12
2022-12-16T08:14:55.950Z,994.17
2022-12-16T08:15:56.020Z,994.13
2022-12-16T08:16:56.062Z,994.14
2022-12-16T08:17:55.904Z,994.12
2022-12-16T08:18:55.903Z,994.14
2022-12-16T08:19:55.886Z,994.13
2022-12-16T08:20:55.883Z,994.06
2022-12-16T08:21:55.887Z,994.08
2022-12-16T08:22:55.853Z,994.12
2022-12-16T08:23:55.833Z,994.06
2022-12-16T08:24:56.048Z,994.03
2022-12-16T08:25:55.815Z,994.18
2022-12-16T08:26:55.802Z,994.19
2022-12-16T08:27:55.823Z,994.17
2022-12-16T08:28:59.313Z,994.20
2022-12-16T08:29:57.017Z,994.19
2022-12-16T08:30:55.818Z,994.20
2022-12-16T08:31:55.753Z,994.22
2022-12-16T08:32:59.337Z,994.23
2022-12-16T08:33:56.743Z,994.26
2022-12-16T08:34:55.720Z,994.25
2022-12-16T08:35:55.711Z,994.30
2022-12-16T08:36:55.700Z,994.27
2022-12-16T08:37:55.681Z,994.26
2022-12-16T08:38:55.671Z,994.26
2022-12-16T08:40:17.995Z,994.30
2022-12-16T08:40:56.651Z,994.28
2022-12-16T08:41:55.640Z,994.29
2022-12-16T08:42:55.629Z,994.27
2022-12-16T08:43:55.621Z,994.27
2022-12-16T08:44:55.621Z,994.40
2022-12-16T08:45:55.667Z,994.42
2022-12-16T08:46:55.582Z,994.42
2022-12-16T08:47:55.578Z,994.40
2022-12-16T08:48:55.561Z,994.46
2022-12-16T08:49:57.892Z,994.45
2022-12-16T08:50:56.558Z,994.49
2022-12-16T08:51:55.529Z,994.51
2022-12-16T08:52:55.517Z,994.49
2022-12-16T08:53:55.510Z,994.55
2022-12-16T08:54:55.490Z,994.53
2022-12-16T08:55:55.838Z,994.58
2022-12-16T08:56:55.498Z,994.65
2022-12-16T08:57:55.462Z,994.66
2022-12-16T08:58:55.453Z,994.74
2022-12-16T08:59:55.439Z,994.70
2022-12-16T09:00:55.534Z,994.70
2022-12-16T09:01:55.498Z,994.72
2022-12-16T09:02:55.773Z,994.64
2022-12-16T09:03:55.506Z,994.61
2022-12-16T09:04:55.498Z,994.56
2022-12-16T09:05:55.381Z,994.61
2022-12-16T09:06:55.360Z,994.64
2022-12-16T09:07:55.440Z,994.69
2022-12-16T09:08:55.338Z,994.65
2022-12-16T09:09:55.327Z,994.67
2022-12-16T09:10:55.349Z,994.75
2022-12-16T09:11:55.309Z,994.77
2022-12-16T09:12:55.298Z,994.83
2022-12-16T09:13:55.306Z,994.76
2022-12-16T09:14:55.267Z,994.77
2022-12-16T09:15:55.273Z,994.80
2022-12-16T09:16:55.256Z,994.85
2022-12-16T09:17:55.247Z,994.83
2022-12-16T09:18:55.236Z,994.83
2022-12-16T09:19:55.444Z,994.87
2022-12-16T09:20:55.208Z,994.87
2022-12-16T09:21:55.197Z,994.98
2022-12-16T09:22:55.230Z,994.93
2022-12-16T09:23:55.186Z,995.04
2022-12-16T09:24:56.046Z,995.11
2022-12-16T09:25:55.610Z,995.13
2022-12-16T09:26:55.172Z,995.15
2022-12-16T09:27:55.136Z,995.19
2022-12-16T09:28:55.116Z,995.09
2022-12-16T09:29:55.106Z,995.13
2022-12-16T09:30:55.536Z,995.28
2022-12-16T09:31:55.115Z,995.15
2022-12-16T09:32:55.077Z,995.20
2022-12-16T09:33:55.069Z,995.24
2022-12-16T09:34:55.054Z,995.23
2022-12-16T09:35:55.473Z,995.28
2022-12-16T09:36:55.035Z,995.25
2022-12-16T09:37:55.057Z,995.22
2022-12-16T09:38:55.007Z,995.24
2022-12-16T09:39:54.996Z,995.25
2022-12-16T09:40:54.984Z,995.29
2022-12-16T09:41:55.552Z,995.28
2022-12-16T09:42:55.548Z,995.36
2022-12-16T09:43:54.973Z,995.35
2022-12-16T09:44:54.982Z,995.34
2022-12-16T09:45:54.993Z,995.37
2022-12-16T09:46:55.013Z,995.36
2022-12-16T09:47:54.915Z,995.38
2022-12-16T09:48:54.953Z,995.30
2022-12-16T09:49:54.894Z,995.35
2022-12-16T09:50:54.882Z,995.31
2022-12-16T09:51:54.864Z,995.31
2022-12-16T09:52:54.854Z,995.36
2022-12-16T09:53:54.847Z,995.35
2022-12-16T09:54:54.855Z,995.33
2022-12-16T09:55:54.822Z,995.35
2022-12-16T09:56:55.372Z,995.45
2022-12-16T09:57:54.802Z,995.35
2022-12-16T09:58:54.782Z,995.43
2022-12-16T09:59:54.781Z,995.33
2022-12-16T10:00:54.795Z,995.30
2022-12-16T10:01:54.905Z,995.31
2022-12-16T10:02:54.977Z,995.36
2022-12-16T10:03:54.843Z,995.35
2022-12-16T10:04:54.718Z,995.35
2022-12-16T10:05:54.720Z,995.35
2022-12-16T10:06:54.710Z,995.43
2022-12-16T10:07:54.690Z,995.30
2022-12-16T10:08:54.670Z,995.36
2022-12-16T10:09:54.670Z,995.43
2022-12-16T10:10:54.650Z,995.41
2022-12-16T10:11:54.670Z,995.45
2022-12-16T10:12:54.630Z,995.45
2022-12-16T10:13:54.619Z,995.42
2022-12-16T10:14:54.611Z,995.38
2022-12-16T10:15:54.634Z,995.39
2022-12-16T10:16:54.591Z,995.42
2022-12-16T10:17:54.600Z,995.39
2022-12-16T10:18:54.643Z,995.41
2022-12-16T10:19:54.569Z,995.39
2022-12-16T10:20:54.547Z,995.36
2022-12-16T10:21:54.540Z,995.35
2022-12-16T10:22:54.548Z,995.37
2022-12-16T10:23:54.518Z,995.38
2022-12-16T10:24:54.499Z,995.43
2022-12-16T10:25:54.498Z,995.43
2022-12-16T10:26:54.479Z,995.41
2022-12-16T10:27:54.468Z,995.42
2022-12-16T10:28:54.477Z,995.42
2022-12-16T10:29:54.448Z,995.38
2022-12-16T10:30:54.469Z,995.49
2022-12-16T10:31:54.427Z,995.49
2022-12-16T10:32:54.409Z,995.47
2022-12-16T10:33:54.407Z,995.52
2022-12-16T10:34:54.410Z,995.55
2022-12-16T10:35:55.486Z,995.55
2022-12-16T10:36:54.368Z,995.54
2022-12-16T10:37:54.365Z,995.58
2022-12-16T10:38:54.346Z,995.59
2022-12-16T10:39:54.346Z,995.59
2022-12-16T10:40:54.455Z,995.61
2022-12-16T10:41:54.315Z,995.63
2022-12-16T10:42:54.297Z,995.67
2022-12-16T10:43:54.295Z,995.70
2022-12-16T10:44:54.277Z,995.70
2022-12-16T10:45:54.318Z,995.64
2022-12-16T10:46:54.334Z,995.66
2022-12-16T10:47:54.245Z,995.68
2022-12-16T10:48:56.840Z,995.61
2022-12-16T10:49:55.020Z,995.65
2022-12-16T10:50:54.215Z,995.64
2022-12-16T10:51:54.206Z,995.62
2022-12-16T10:52:54.214Z,995.73
2022-12-16T10:53:54.183Z,995.68
2022-12-16T10:54:54.174Z,995.73
2022-12-16T10:55:54.158Z,995.70
2022-12-16T10:56:54.145Z,995.75
2022-12-16T10:57:54.165Z,995.68
2022-12-16T10:58:54.124Z,995.71
2022-12-16T10:59:54.119Z,995.65
2022-12-16T11:00:54.104Z,995.63
2022-12-16T11:01:54.239Z,995.69
2022-12-16T11:02:54.236Z,995.69
2022-12-16T11:03:54.521Z,995.70
2022-12-16T11:04:55.847Z,995.71
2022-12-16T11:05:54.053Z,995.76
2022-12-16T11:06:54.032Z,995.75
2022-12-16T11:07:54.022Z,995.75
2022-12-16T11:08:55.675Z,995.70
2022-12-16T11:09:54.124Z,995.71
2022-12-16T11:10:53.990Z,995.64
2022-12-16T11:11:53.981Z,995.64
2022-12-16T11:12:53.971Z,995.70
2022-12-16T11:13:53.961Z,995.67
2022-12-16T11:15:27.181Z,995.67
2022-12-16T11:15:55.574Z,995.65
2022-12-16T11:16:53.920Z,995.61
2022-12-16T11:17:53.914Z,995.66
2022-12-16T11:18:53.915Z,995.61
2022-12-16T11:19:53.900Z,995.66
2022-12-16T11:20:53.881Z,995.64
2022-12-16T11:21:53.895Z,995.64
2022-12-16T11:22:53.861Z,995.68
2022-12-16T11:23:53.848Z,995.68
2022-12-16T11:24:53.831Z,995.73
2022-12-16T11:25:53.832Z,995.73
2022-12-16T11:26:53.809Z,995.74
2022-12-16T11:27:53.820Z,995.75
2022-12-16T11:28:53.787Z,995.68
2022-12-16T11:29:53.779Z,995.71
2022-12-16T11:30:53.813Z,995.75
2022-12-16T11:31:59.546Z,995.72
2022-12-16T11:32:54.767Z,995.66
2022-12-16T11:33:53.739Z,995.70
2022-12-16T11:34:53.720Z,995.75
2022-12-16T11:35:53.718Z,995.74
2022-12-16T11:36:53.699Z,995.72
2022-12-16T11:37:53.718Z,995.70
2022-12-16T11:38:53.699Z,995.75
2022-12-16T11:39:53.668Z,995.72
2022-12-16T11:40:53.656Z,995.73
2022-12-16T11:41:53.647Z,995.78
2022-12-16T11:42:53.628Z,995.70
2022-12-16T11:43:53.618Z,995.70
2022-12-16T11:44:53.629Z,995.65
2022-12-16T11:45:53.605Z,995.70
2022-12-16T11:46:53.623Z,995.78
2022-12-16T11:47:53.578Z,995.70
2022-12-16T11:48:53.569Z,995.72
2022-12-16T11:49:53.556Z,995.72
2022-12-16T11:50:53.558Z,995.77
2022-12-16T11:51:59.741Z,995.68
2022-12-16T11:52:54.516Z,995.72
2022-12-16T11:53:53.513Z,995.73
2022-12-16T11:54:53.497Z,995.72
2022-12-16T11:56:05.934Z,995.77
2022-12-16T11:56:54.582Z,995.74
2022-12-16T11:57:53.466Z,995.78
2022-12-16T11:58:53.485Z,995.76
2022-12-16T11:59:53.443Z,995.82
2022-12-16T12:00:53.426Z,995.79
2022-12-16T12:01:55.552Z,995.83
2022-12-16T12:02:53.435Z,995.85
2022-12-16T12:03:53.515Z,995.86
2022-12-16T12:04:53.393Z,995.93
2022-12-16T12:05:53.375Z,995.85
2022-12-16T12:06:53.364Z,995.85
2022-12-16T12:07:53.376Z,995.85
2022-12-16T12:08:53.335Z,995.96
2022-12-16T12:09:53.325Z,995.89
2022-12-16T12:10:53.314Z,995.82
2022-12-16T12:11:53.306Z,995.85
2022-12-16T12:12:53.296Z,995.87
2022-12-16T12:13:53.312Z,995.85
2022-12-16T12:14:53.284Z,995.89
2022-12-16T12:15:53.333Z,995.88
2022-12-16T12:16:53.263Z,995.96
2022-12-16T12:17:53.244Z,995.98
2022-12-16T12:18:53.232Z,995.87
2022-12-16T12:19:53.233Z,995.91
2022-12-16T12:20:53.205Z,995.94
2022-12-16T12:21:53.213Z,995.95
2022-12-16T12:22:53.198Z,995.98
2022-12-16T12:23:53.173Z,995.96
2022-12-16T12:24:56.397Z,996.04
2022-12-16T12:25:53.152Z,996.01
2022-12-16T12:26:53.144Z,996.00
2022-12-16T12:27:53.130Z,996.03